sensor_id;sensor_type;location;lat;lon;timestamp;P1;durP1;ratioP1;P2;durP2;ratioP2
9974;SDS011;5028;50.974;4.968;2023-02-11T00:01:42;15.83;;;8.00;;
9974;SDS011;5028;50.974;4.968;2023-02-11T00:04:11;12.67;;;7.73;;
9974;SDS011;5028;50.974;4.968;2023-02-11T00:06:45;14.63;;;7.43;;
9974;SDS011;5028;50.974;4.968;2023-02-11T00:09:14;12.20;;;7.27;;
9974;SDS011;5028;50.974;4.968;2023-02-11T00:11:55;13.67;;;7.37;;
9974;SDS011;5028;50.974;4.968;2023-02-11T00:14:25;11.07;;;6.90;;
9974;SDS011;5028;50.974;4.968;2023-02-11T00:16:59;13.23;;;6.67;;
9974;SDS011;5028;50.974;4.968;2023-02-11T00:19:27;11.50;;;6.70;;
9974;SDS011;5028;50.974;4.968;2023-02-11T00:22:02;12.67;;;7.07;;
9974;SDS011;5028;50.974;4.968;2023-02-11T00:24:31;14.50;;;6.60;;
9974;SDS011;5028;50.974;4.968;2023-02-11T00:27:05;10.67;;;6.00;;
9974;SDS011;5028;50.974;4.968;2023-02-11T00:29:35;14.53;;;6.50;;
9974;SDS011;5028;50.974;4.968;2023-02-11T00:32:10;12.50;;;5.90;;
9974;SDS011;5028;50.974;4.968;2023-02-11T00:34:39;12.80;;;6.73;;
9974;SDS011;5028;50.974;4.968;2023-02-11T00:37:13;10.67;;;6.43;;
9974;SDS011;5028;50.974;4.968;2023-02-11T00:39:42;11.97;;;6.00;;
9974;SDS011;5028;50.974;4.968;2023-02-11T00:42:17;13.50;;;6.10;;
9974;SDS011;5028;50.974;4.968;2023-02-11T00:44:47;11.70;;;6.37;;
9974;SDS011;5028;50.974;4.968;2023-02-11T00:47:22;10.63;;;6.07;;
9974;SDS011;5028;50.974;4.968;2023-02-11T00:49:51;12.67;;;6.33;;
9974;SDS011;5028;50.974;4.968;2023-02-11T00:52:25;13.10;;;5.93;;
9974;SDS011;5028;50.974;4.968;2023-02-11T00:54:54;12.47;;;6.30;;
9974;SDS011;5028;50.974;4.968;2023-02-11T00:57:28;15.73;;;6.47;;
9974;SDS011;5028;50.974;4.968;2023-02-11T00:59:58;15.67;;;6.47;;
9974;SDS011;5028;50.974;4.968;2023-02-11T01:02:32;11.77;;;5.70;;
9974;SDS011;5028;50.974;4.968;2023-02-11T01:05:01;10.83;;;5.90;;
9974;SDS011;5028;50.974;4.968;2023-02-11T01:07:36;10.60;;;6.27;;
9974;SDS011;5028;50.974;4.968;2023-02-11T01:10:05;8.63;;;5.60;;
9974;SDS011;5028;50.974;4.968;2023-02-11T01:12:39;10.60;;;5.33;;
9974;SDS011;5028;50.974;4.968;2023-02-11T01:15:16;10.30;;;5.73;;
9974;SDS011;5028;50.974;4.968;2023-02-11T01:17:52;11.37;;;5.83;;
9974;SDS011;5028;50.974;4.968;2023-02-11T01:20:21;12.07;;;6.30;;
9974;SDS011;5028;50.974;4.968;2023-02-11T01:22:57;10.53;;;5.33;;
9974;SDS011;5028;50.974;4.968;2023-02-11T01:25:26;13.60;;;6.17;;
9974;SDS011;5028;50.974;4.968;2023-02-11T01:28:00;12.70;;;5.97;;
9974;SDS011;5028;50.974;4.968;2023-02-11T01:30:30;13.30;;;5.90;;
9974;SDS011;5028;50.974;4.968;2023-02-11T01:33:05;12.03;;;5.63;;
9974;SDS011;5028;50.974;4.968;2023-02-11T01:35:34;13.53;;;6.13;;
9974;SDS011;5028;50.974;4.968;2023-02-11T01:38:12;13.23;;;5.60;;
9974;SDS011;5028;50.974;4.968;2023-02-11T01:40:45;13.97;;;6.13;;
9974;SDS011;5028;50.974;4.968;2023-02-11T01:43:20;16.83;;;6.17;;
9974;SDS011;5028;50.974;4.968;2023-02-11T01:45:56;11.97;;;5.60;;
9974;SDS011;5028;50.974;4.968;2023-02-11T01:48:34;10.73;;;5.67;;
9974;SDS011;5028;50.974;4.968;2023-02-11T01:51:06;13.40;;;5.37;;
9974;SDS011;5028;50.974;4.968;2023-02-11T01:53:46;14.67;;;6.40;;
9974;SDS011;5028;50.974;4.968;2023-02-11T01:56:41;12.10;;;5.73;;
9974;SDS011;5028;50.974;4.968;2023-02-11T01:59:31;8.67;;;5.23;;
9974;SDS011;5028;50.974;4.968;2023-02-11T02:02:11;14.20;;;6.57;;
9974;SDS011;5028;50.974;4.968;2023-02-11T02:04:44;13.10;;;5.23;;
9974;SDS011;5028;50.974;4.968;2023-02-11T02:07:25;15.67;;;5.97;;
9974;SDS011;5028;50.974;4.968;2023-02-11T02:10:06;12.33;;;5.70;;
9974;SDS011;5028;50.974;4.968;2023-02-11T02:12:46;14.47;;;6.50;;
9974;SDS011;5028;50.974;4.968;2023-02-11T02:15:25;17.93;;;7.00;;
9974;SDS011;5028;50.974;4.968;2023-02-11T02:18:08;12.90;;;6.00;;
9974;SDS011;5028;50.974;4.968;2023-02-11T02:21:07;12.80;;;5.53;;
9974;SDS011;5028;50.974;4.968;2023-02-11T02:27:18;16.77;;;5.87;;
9974;SDS011;5028;50.974;4.968;2023-02-11T02:33:19;10.47;;;5.23;;
9974;SDS011;5028;50.974;4.968;2023-02-11T02:36:17;11.73;;;5.40;;
9974;SDS011;5028;50.974;4.968;2023-02-11T02:38:52;11.33;;;5.30;;
9974;SDS011;5028;50.974;4.968;2023-02-11T02:41:30;13.87;;;5.90;;
9974;SDS011;5028;50.974;4.968;2023-02-11T02:44:00;12.40;;;5.70;;
9974;SDS011;5028;50.974;4.968;2023-02-11T02:46:35;11.07;;;5.10;;
9974;SDS011;5028;50.974;4.968;2023-02-11T02:49:08;11.83;;;5.53;;
9974;SDS011;5028;50.974;4.968;2023-02-11T02:58:07;10.67;;;6.13;;
9974;SDS011;5028;50.974;4.968;2023-02-11T03:00:53;12.33;;;6.50;;
9974;SDS011;5028;50.974;4.968;2023-02-11T03:03:37;16.03;;;6.20;;
9974;SDS011;5028;50.974;4.968;2023-02-11T03:06:18;12.23;;;5.90;;
9974;SDS011;5028;50.974;4.968;2023-02-11T03:08:58;12.10;;;6.27;;
9974;SDS011;5028;50.974;4.968;2023-02-11T03:11:43;11.27;;;6.13;;
9974;SDS011;5028;50.974;4.968;2023-02-11T03:14:18;12.30;;;6.40;;
9974;SDS011;5028;50.974;4.968;2023-02-11T03:16:48;12.93;;;6.70;;
9974;SDS011;5028;50.974;4.968;2023-02-11T03:19:25;16.70;;;6.73;;
9974;SDS011;5028;50.974;4.968;2023-02-11T03:21:57;16.10;;;6.73;;
9974;SDS011;5028;50.974;4.968;2023-02-11T03:24:36;17.47;;;7.60;;
9974;SDS011;5028;50.974;4.968;2023-02-11T03:27:08;10.53;;;6.80;;
9974;SDS011;5028;50.974;4.968;2023-02-11T03:29:51;19.00;;;6.90;;
9974;SDS011;5028;50.974;4.968;2023-02-11T03:32:22;15.60;;;6.80;;
9974;SDS011;5028;50.974;4.968;2023-02-11T03:35:02;15.53;;;7.13;;
9974;SDS011;5028;50.974;4.968;2023-02-11T03:37:39;13.20;;;7.00;;
9974;SDS011;5028;50.974;4.968;2023-02-11T03:40:18;14.17;;;6.60;;
9974;SDS011;5028;50.974;4.968;2023-02-11T03:42:49;11.00;;;7.20;;
9974;SDS011;5028;50.974;4.968;2023-02-11T03:45:26;15.80;;;7.40;;
9974;SDS011;5028;50.974;4.968;2023-02-11T03:47:57;15.83;;;7.97;;
9974;SDS011;5028;50.974;4.968;2023-02-11T03:50:35;12.97;;;6.87;;
9974;SDS011;5028;50.974;4.968;2023-02-11T03:53:07;10.93;;;6.47;;
9974;SDS011;5028;50.974;4.968;2023-02-11T03:55:43;12.47;;;7.10;;
9974;SDS011;5028;50.974;4.968;2023-02-11T03:58:12;15.10;;;6.90;;
9974;SDS011;5028;50.974;4.968;2023-02-11T04:00:46;14.53;;;7.00;;
9974;SDS011;5028;50.974;4.968;2023-02-11T04:03:15;15.03;;;7.30;;
9974;SDS011;5028;50.974;4.968;2023-02-11T04:05:51;10.53;;;6.97;;
9974;SDS011;5028;50.974;4.968;2023-02-11T04:08:20;13.53;;;7.30;;
9974;SDS011;5028;50.974;4.968;2023-02-11T04:10:56;13.30;;;7.50;;
9974;SDS011;5028;50.974;4.968;2023-02-11T04:13:37;12.40;;;6.63;;
9974;SDS011;5028;50.974;4.968;2023-02-11T04:16:12;14.07;;;7.00;;
9974;SDS011;5028;50.974;4.968;2023-02-11T04:18:41;14.10;;;7.20;;
9974;SDS011;5028;50.974;4.968;2023-02-11T04:21:15;15.37;;;7.77;;
9974;SDS011;5028;50.974;4.968;2023-02-11T04:23:45;11.87;;;7.00;;
9974;SDS011;5028;50.974;4.968;2023-02-11T04:26:20;11.83;;;7.33;;
9974;SDS011;5028;50.974;4.968;2023-02-11T04:28:48;13.40;;;7.20;;
9974;SDS011;5028;50.974;4.968;2023-02-11T04:31:22;10.77;;;6.73;;
9974;SDS011;5028;50.974;4.968;2023-02-11T04:33:51;15.47;;;7.17;;
9974;SDS011;5028;50.974;4.968;2023-02-11T04:36:26;13.50;;;7.83;;
9974;SDS011;5028;50.974;4.968;2023-02-11T04:38:55;12.07;;;7.03;;
9974;SDS011;5028;50.974;4.968;2023-02-11T04:41:30;15.67;;;7.50;;
9974;SDS011;5028;50.974;4.968;2023-02-11T04:43:58;15.27;;;7.67;;
9974;SDS011;5028;50.974;4.968;2023-02-11T04:46:32;14.73;;;7.57;;
9974;SDS011;5028;50.974;4.968;2023-02-11T04:49:01;12.07;;;7.67;;
9974;SDS011;5028;50.974;4.968;2023-02-11T04:51:36;13.73;;;8.20;;
9974;SDS011;5028;50.974;4.968;2023-02-11T04:54:06;11.97;;;7.53;;
9974;SDS011;5028;50.974;4.968;2023-02-11T04:56:41;14.37;;;7.67;;
9974;SDS011;5028;50.974;4.968;2023-02-11T04:59:10;13.67;;;8.10;;
9974;SDS011;5028;50.974;4.968;2023-02-11T05:01:46;12.97;;;8.27;;
9974;SDS011;5028;50.974;4.968;2023-02-11T05:04:14;15.93;;;7.77;;
9974;SDS011;5028;50.974;4.968;2023-02-11T05:06:50;11.27;;;7.83;;
9974;SDS011;5028;50.974;4.968;2023-02-11T05:09:19;14.50;;;8.10;;
9974;SDS011;5028;50.974;4.968;2023-02-11T05:11:55;14.13;;;8.30;;
9974;SDS011;5028;50.974;4.968;2023-02-11T05:14:29;15.03;;;8.63;;
9974;SDS011;5028;50.974;4.968;2023-02-11T05:17:04;13.87;;;8.53;;
9974;SDS011;5028;50.974;4.968;2023-02-11T05:19:32;12.67;;;8.20;;
9974;SDS011;5028;50.974;4.968;2023-02-11T05:22:07;17.27;;;9.67;;
9974;SDS011;5028;50.974;4.968;2023-02-11T05:24:37;14.70;;;8.77;;
9974;SDS011;5028;50.974;4.968;2023-02-11T05:27:12;18.20;;;9.50;;
9974;SDS011;5028;50.974;4.968;2023-02-11T05:29:40;12.93;;;9.07;;
9974;SDS011;5028;50.974;4.968;2023-02-11T05:32:15;13.17;;;8.87;;
9974;SDS011;5028;50.974;4.968;2023-02-11T05:34:43;16.47;;;10.00;;
9974;SDS011;5028;50.974;4.968;2023-02-11T05:37:18;16.87;;;9.90;;
9974;SDS011;5028;50.974;4.968;2023-02-11T05:39:47;15.70;;;9.40;;
9974;SDS011;5028;50.974;4.968;2023-02-11T05:42:23;15.70;;;10.00;;
9974;SDS011;5028;50.974;4.968;2023-02-11T05:44:51;16.97;;;9.90;;
9974;SDS011;5028;50.974;4.968;2023-02-11T05:47:26;17.80;;;10.23;;
9974;SDS011;5028;50.974;4.968;2023-02-11T05:49:54;18.57;;;10.53;;
9974;SDS011;5028;50.974;4.968;2023-02-11T05:52:29;18.50;;;10.63;;
9974;SDS011;5028;50.974;4.968;2023-02-11T05:54:58;24.03;;;11.30;;
9974;SDS011;5028;50.974;4.968;2023-02-11T05:57:33;18.13;;;10.73;;
9974;SDS011;5028;50.974;4.968;2023-02-11T06:00:02;16.27;;;10.73;;
9974;SDS011;5028;50.974;4.968;2023-02-11T06:02:38;21.97;;;11.30;;
9974;SDS011;5028;50.974;4.968;2023-02-11T06:05:06;14.93;;;10.73;;
9974;SDS011;5028;50.974;4.968;2023-02-11T06:07:42;20.40;;;11.70;;
9974;SDS011;5028;50.974;4.968;2023-02-11T06:10:11;17.13;;;11.70;;
9974;SDS011;5028;50.974;4.968;2023-02-11T06:13:01;19.00;;;11.93;;
9974;SDS011;5028;50.974;4.968;2023-02-11T06:15:29;21.93;;;11.77;;
9974;SDS011;5028;50.974;4.968;2023-02-11T06:18:04;21.37;;;11.80;;
9974;SDS011;5028;50.974;4.968;2023-02-11T06:20:32;16.53;;;12.63;;
9974;SDS011;5028;50.974;4.968;2023-02-11T06:23:07;16.50;;;11.57;;
9974;SDS011;5028;50.974;4.968;2023-02-11T06:25:37;22.10;;;12.80;;
9974;SDS011;5028;50.974;4.968;2023-02-11T06:28:12;19.90;;;11.93;;
9974;SDS011;5028;50.974;4.968;2023-02-11T06:30:40;19.03;;;12.13;;
9974;SDS011;5028;50.974;4.968;2023-02-11T06:33:15;20.03;;;12.43;;
9974;SDS011;5028;50.974;4.968;2023-02-11T06:35:43;19.40;;;12.70;;
9974;SDS011;5028;50.974;4.968;2023-02-11T06:38:18;19.27;;;13.03;;
9974;SDS011;5028;50.974;4.968;2023-02-11T06:40:48;19.47;;;13.07;;
9974;SDS011;5028;50.974;4.968;2023-02-11T06:43:23;23.40;;;13.67;;
9974;SDS011;5028;50.974;4.968;2023-02-11T06:45:51;18.17;;;13.63;;
9974;SDS011;5028;50.974;4.968;2023-02-11T06:48:27;18.77;;;13.00;;
9974;SDS011;5028;50.974;4.968;2023-02-11T06:50:55;21.10;;;14.30;;
9974;SDS011;5028;50.974;4.968;2023-02-11T06:53:30;22.67;;;13.50;;
9974;SDS011;5028;50.974;4.968;2023-02-11T06:56:02;21.33;;;13.93;;
9974;SDS011;5028;50.974;4.968;2023-02-11T06:58:38;18.77;;;13.83;;
9974;SDS011;5028;50.974;4.968;2023-02-11T07:01:07;19.07;;;13.53;;
9974;SDS011;5028;50.974;4.968;2023-02-11T07:03:43;22.23;;;14.23;;
9974;SDS011;5028;50.974;4.968;2023-02-11T07:06:12;20.33;;;14.43;;
9974;SDS011;5028;50.974;4.968;2023-02-11T07:08:49;22.43;;;14.50;;
9974;SDS011;5028;50.974;4.968;2023-02-11T07:11:19;21.57;;;14.57;;
9974;SDS011;5028;50.974;4.968;2023-02-11T07:13:58;19.73;;;14.40;;
9974;SDS011;5028;50.974;4.968;2023-02-11T07:16:28;25.90;;;15.23;;
9974;SDS011;5028;50.974;4.968;2023-02-11T07:19:04;20.43;;;14.53;;
9974;SDS011;5028;50.974;4.968;2023-02-11T07:21:32;22.57;;;15.43;;
9974;SDS011;5028;50.974;4.968;2023-02-11T07:24:07;24.47;;;14.67;;
9974;SDS011;5028;50.974;4.968;2023-02-11T07:26:38;20.53;;;15.07;;
9974;SDS011;5028;50.974;4.968;2023-02-11T07:29:13;25.90;;;15.27;;
9974;SDS011;5028;50.974;4.968;2023-02-11T07:31:41;19.63;;;15.63;;
9974;SDS011;5028;50.974;4.968;2023-02-11T07:34:16;24.07;;;16.17;;
9974;SDS011;5028;50.974;4.968;2023-02-11T07:36:51;24.60;;;15.67;;
9974;SDS011;5028;50.974;4.968;2023-02-11T07:39:19;22.77;;;16.30;;
9974;SDS011;5028;50.974;4.968;2023-02-11T07:41:55;24.73;;;15.90;;
9974;SDS011;5028;50.974;4.968;2023-02-11T07:44:23;26.13;;;16.40;;
9974;SDS011;5028;50.974;4.968;2023-02-11T07:46:58;25.20;;;16.67;;
9974;SDS011;5028;50.974;4.968;2023-02-11T07:49:26;27.13;;;17.37;;
9974;SDS011;5028;50.974;4.968;2023-02-11T07:52:01;23.93;;;16.83;;
9974;SDS011;5028;50.974;4.968;2023-02-11T07:54:29;27.03;;;17.47;;
9974;SDS011;5028;50.974;4.968;2023-02-11T07:57:05;24.53;;;17.13;;
9974;SDS011;5028;50.974;4.968;2023-02-11T07:59:33;25.23;;;16.80;;
9974;SDS011;5028;50.974;4.968;2023-02-11T08:02:09;24.10;;;17.00;;
9974;SDS011;5028;50.974;4.968;2023-02-11T08:04:37;25.40;;;17.37;;
9974;SDS011;5028;50.974;4.968;2023-02-11T08:07:13;24.63;;;17.03;;
9974;SDS011;5028;50.974;4.968;2023-02-11T08:09:42;27.73;;;18.17;;
9974;SDS011;5028;50.974;4.968;2023-02-11T08:12:32;26.27;;;17.97;;
9974;SDS011;5028;50.974;4.968;2023-02-11T08:15:00;26.83;;;17.00;;
9974;SDS011;5028;50.974;4.968;2023-02-11T08:17:35;27.57;;;18.43;;
9974;SDS011;5028;50.974;4.968;2023-02-11T08:20:04;26.13;;;18.43;;
9974;SDS011;5028;50.974;4.968;2023-02-11T08:22:40;24.97;;;18.10;;
9974;SDS011;5028;50.974;4.968;2023-02-11T08:25:08;27.37;;;18.77;;
9974;SDS011;5028;50.974;4.968;2023-02-11T08:27:44;24.17;;;18.63;;
9974;SDS011;5028;50.974;4.968;2023-02-11T08:30:13;27.13;;;18.43;;
9974;SDS011;5028;50.974;4.968;2023-02-11T08:32:50;26.93;;;18.37;;
9974;SDS011;5028;50.974;4.968;2023-02-11T08:35:18;30.17;;;18.07;;
9974;SDS011;5028;50.974;4.968;2023-02-11T08:37:53;26.70;;;19.23;;
9974;SDS011;5028;50.974;4.968;2023-02-11T08:40:21;27.27;;;19.20;;
9974;SDS011;5028;50.974;4.968;2023-02-11T08:42:58;29.00;;;19.30;;
9974;SDS011;5028;50.974;4.968;2023-02-11T08:45:26;31.27;;;19.23;;
9974;SDS011;5028;50.974;4.968;2023-02-11T08:48:01;30.93;;;20.90;;
9974;SDS011;5028;50.974;4.968;2023-02-11T08:50:29;29.57;;;19.90;;
9974;SDS011;5028;50.974;4.968;2023-02-11T08:53:04;27.23;;;19.57;;
9974;SDS011;5028;50.974;4.968;2023-02-11T08:55:32;30.70;;;20.73;;
9974;SDS011;5028;50.974;4.968;2023-02-11T08:58:08;29.27;;;21.17;;
9974;SDS011;5028;50.974;4.968;2023-02-11T09:00:36;29.63;;;21.93;;
9974;SDS011;5028;50.974;4.968;2023-02-11T09:03:12;31.37;;;22.00;;
9974;SDS011;5028;50.974;4.968;2023-02-11T09:05:41;29.70;;;20.63;;
9974;SDS011;5028;50.974;4.968;2023-02-11T09:08:16;31.30;;;21.77;;
9974;SDS011;5028;50.974;4.968;2023-02-11T09:10:44;27.73;;;21.17;;
9974;SDS011;5028;50.974;4.968;2023-02-11T09:13:34;33.33;;;22.23;;
9974;SDS011;5028;50.974;4.968;2023-02-11T09:16:03;31.80;;;22.27;;
9974;SDS011;5028;50.974;4.968;2023-02-11T09:18:39;35.50;;;21.53;;
9974;SDS011;5028;50.974;4.968;2023-02-11T09:21:09;34.23;;;21.53;;
9974;SDS011;5028;50.974;4.968;2023-02-11T09:23:44;33.63;;;22.87;;
9974;SDS011;5028;50.974;4.968;2023-02-11T09:26:13;34.40;;;22.90;;
9974;SDS011;5028;50.974;4.968;2023-02-11T09:28:51;35.13;;;23.50;;
9974;SDS011;5028;50.974;4.968;2023-02-11T09:31:21;32.77;;;23.73;;
9974;SDS011;5028;50.974;4.968;2023-02-11T09:33:58;30.70;;;22.13;;
9974;SDS011;5028;50.974;4.968;2023-02-11T09:36:28;39.47;;;23.07;;
9974;SDS011;5028;50.974;4.968;2023-02-11T09:39:06;33.43;;;22.57;;
9974;SDS011;5028;50.974;4.968;2023-02-11T09:44:45;33.67;;;23.43;;
9974;SDS011;5028;50.974;4.968;2023-02-11T09:47:19;38.00;;;23.73;;
9974;SDS011;5028;50.974;4.968;2023-02-11T09:49:59;33.73;;;23.33;;
9974;SDS011;5028;50.974;4.968;2023-02-11T09:52:31;36.07;;;24.07;;
9974;SDS011;5028;50.974;4.968;2023-02-11T09:55:14;33.77;;;24.37;;
9974;SDS011;5028;50.974;4.968;2023-02-11T09:57:46;36.50;;;24.73;;
9974;SDS011;5028;50.974;4.968;2023-02-11T10:00:24;36.43;;;24.73;;
9974;SDS011;5028;50.974;4.968;2023-02-11T10:03:05;40.67;;;25.10;;
9974;SDS011;5028;50.974;4.968;2023-02-11T10:06:06;35.83;;;25.23;;
9974;SDS011;5028;50.974;4.968;2023-02-11T10:08:56;34.27;;;24.63;;
9974;SDS011;5028;50.974;4.968;2023-02-11T10:11:33;42.10;;;24.63;;
9974;SDS011;5028;50.974;4.968;2023-02-11T10:14:24;32.63;;;23.83;;
9974;SDS011;5028;50.974;4.968;2023-02-11T10:17:07;37.90;;;25.83;;
9974;SDS011;5028;50.974;4.968;2023-02-11T10:19:56;36.77;;;24.87;;
9974;SDS011;5028;50.974;4.968;2023-02-11T10:22:42;36.63;;;25.30;;
9974;SDS011;5028;50.974;4.968;2023-02-11T10:25:22;35.07;;;25.43;;
9974;SDS011;5028;50.974;4.968;2023-02-11T10:27:53;39.53;;;25.80;;
9974;SDS011;5028;50.974;4.968;2023-02-11T10:30:31;35.10;;;26.33;;
9974;SDS011;5028;50.974;4.968;2023-02-11T10:33:13;40.87;;;25.20;;
9974;SDS011;5028;50.974;4.968;2023-02-11T10:35:53;36.20;;;24.90;;
9974;SDS011;5028;50.974;4.968;2023-02-11T10:38:21;39.33;;;27.00;;
9974;SDS011;5028;50.974;4.968;2023-02-11T10:40:49;37.57;;;26.83;;
9974;SDS011;5028;50.974;4.968;2023-02-11T10:43:25;39.30;;;26.57;;
9974;SDS011;5028;50.974;4.968;2023-02-11T10:45:55;35.30;;;26.60;;
9974;SDS011;5028;50.974;4.968;2023-02-11T10:48:38;39.23;;;26.40;;
9974;SDS011;5028;50.974;4.968;2023-02-11T10:51:17;36.27;;;26.87;;
9974;SDS011;5028;50.974;4.968;2023-02-11T10:54:09;39.67;;;26.90;;
9974;SDS011;5028;50.974;4.968;2023-02-11T10:56:57;38.83;;;26.27;;
9974;SDS011;5028;50.974;4.968;2023-02-11T10:59:26;40.53;;;26.70;;
9974;SDS011;5028;50.974;4.968;2023-02-11T11:02:03;39.20;;;27.53;;
9974;SDS011;5028;50.974;4.968;2023-02-11T11:04:46;39.83;;;27.50;;
9974;SDS011;5028;50.974;4.968;2023-02-11T11:07:22;42.27;;;28.17;;
9974;SDS011;5028;50.974;4.968;2023-02-11T11:09:52;42.90;;;27.90;;
9974;SDS011;5028;50.974;4.968;2023-02-11T11:12:45;41.50;;;28.30;;
9974;SDS011;5028;50.974;4.968;2023-02-11T11:15:18;42.47;;;29.33;;
9974;SDS011;5028;50.974;4.968;2023-02-11T11:20:54;45.70;;;29.10;;
9974;SDS011;5028;50.974;4.968;2023-02-11T11:23:31;37.23;;;27.83;;
9974;SDS011;5028;50.974;4.968;2023-02-11T11:26:04;39.03;;;27.57;;
9974;SDS011;5028;50.974;4.968;2023-02-11T11:28:40;40.43;;;28.30;;
9974;SDS011;5028;50.974;4.968;2023-02-11T11:31:18;38.83;;;28.13;;
9974;SDS011;5028;50.974;4.968;2023-02-11T11:33:56;39.03;;;28.07;;
9974;SDS011;5028;50.974;4.968;2023-02-11T11:36:31;42.93;;;28.37;;
9974;SDS011;5028;50.974;4.968;2023-02-11T11:39:19;41.33;;;27.50;;
9974;SDS011;5028;50.974;4.968;2023-02-11T11:41:52;38.70;;;26.97;;
9974;SDS011;5028;50.974;4.968;2023-02-11T11:44:30;38.13;;;27.77;;
9974;SDS011;5028;50.974;4.968;2023-02-11T11:47:18;39.47;;;28.80;;
9974;SDS011;5028;50.974;4.968;2023-02-11T11:50:10;42.23;;;27.90;;
9974;SDS011;5028;50.974;4.968;2023-02-11T11:52:51;39.33;;;27.43;;
9974;SDS011;5028;50.974;4.968;2023-02-11T11:55:34;44.67;;;27.67;;
9974;SDS011;5028;50.974;4.968;2023-02-11T11:58:09;37.27;;;27.57;;
9974;SDS011;5028;50.974;4.968;2023-02-11T12:00:53;38.20;;;27.00;;
9974;SDS011;5028;50.974;4.968;2023-02-11T12:03:32;41.77;;;28.20;;
9974;SDS011;5028;50.974;4.968;2023-02-11T12:06:28;36.57;;;26.50;;
9974;SDS011;5028;50.974;4.968;2023-02-11T12:09:08;39.70;;;27.00;;
9974;SDS011;5028;50.974;4.968;2023-02-11T12:11:58;35.83;;;26.23;;
9974;SDS011;5028;50.974;4.968;2023-02-11T12:14:54;37.20;;;26.73;;
9974;SDS011;5028;50.974;4.968;2023-02-11T12:17:43;39.83;;;26.53;;
9974;SDS011;5028;50.974;4.968;2023-02-11T12:20:24;36.50;;;26.80;;
9974;SDS011;5028;50.974;4.968;2023-02-11T12:23:13;35.07;;;25.80;;
9974;SDS011;5028;50.974;4.968;2023-02-11T12:25:55;40.17;;;26.23;;
9974;SDS011;5028;50.974;4.968;2023-02-11T12:28:39;38.17;;;26.77;;
9974;SDS011;5028;50.974;4.968;2023-02-11T12:31:16;35.70;;;25.67;;
9974;SDS011;5028;50.974;4.968;2023-02-11T12:34:08;36.47;;;25.53;;
9974;SDS011;5028;50.974;4.968;2023-02-11T12:37:04;40.03;;;26.00;;
9974;SDS011;5028;50.974;4.968;2023-02-11T12:39:48;39.00;;;27.03;;
9974;SDS011;5028;50.974;4.968;2023-02-11T12:42:39;36.53;;;26.63;;
9974;SDS011;5028;50.974;4.968;2023-02-11T12:49:00;36.93;;;26.60;;
9974;SDS011;5028;50.974;4.968;2023-02-11T12:52:01;35.30;;;26.10;;
9974;SDS011;5028;50.974;4.968;2023-02-11T12:54:37;35.60;;;26.53;;
9974;SDS011;5028;50.974;4.968;2023-02-11T12:57:17;40.27;;;27.47;;
9974;SDS011;5028;50.974;4.968;2023-02-11T12:59:52;37.90;;;26.13;;
9974;SDS011;5028;50.974;4.968;2023-02-11T13:02:33;37.23;;;26.90;;
9974;SDS011;5028;50.974;4.968;2023-02-11T13:05:12;38.40;;;27.07;;
9974;SDS011;5028;50.974;4.968;2023-02-11T13:07:57;34.23;;;26.07;;
9974;SDS011;5028;50.974;4.968;2023-02-11T13:10:31;35.97;;;26.73;;
9974;SDS011;5028;50.974;4.968;2023-02-11T13:13:17;37.37;;;27.53;;
9974;SDS011;5028;50.974;4.968;2023-02-11T13:15:53;33.83;;;26.07;;
9974;SDS011;5028;50.974;4.968;2023-02-11T13:18:35;34.60;;;26.10;;
9974;SDS011;5028;50.974;4.968;2023-02-11T13:24:25;34.53;;;25.83;;
9974;SDS011;5028;50.974;4.968;2023-02-11T13:27:09;34.77;;;26.50;;
9974;SDS011;5028;50.974;4.968;2023-02-11T13:30:12;35.87;;;26.03;;
9974;SDS011;5028;50.974;4.968;2023-02-11T13:33:04;35.93;;;27.10;;
9974;SDS011;5028;50.974;4.968;2023-02-11T13:35:44;35.87;;;27.07;;
9974;SDS011;5028;50.974;4.968;2023-02-11T13:38:23;37.67;;;27.10;;
9974;SDS011;5028;50.974;4.968;2023-02-11T13:40:58;34.43;;;26.13;;
9974;SDS011;5028;50.974;4.968;2023-02-11T13:43:36;34.63;;;26.63;;
9974;SDS011;5028;50.974;4.968;2023-02-11T13:46:05;36.23;;;26.07;;
9974;SDS011;5028;50.974;4.968;2023-02-11T13:48:46;31.60;;;25.97;;
9974;SDS011;5028;50.974;4.968;2023-02-11T13:51:31;37.73;;;26.23;;
9974;SDS011;5028;50.974;4.968;2023-02-11T13:54:17;39.20;;;26.63;;
9974;SDS011;5028;50.974;4.968;2023-02-11T13:59:50;33.93;;;25.87;;
9974;SDS011;5028;50.974;4.968;2023-02-11T14:02:21;37.47;;;26.93;;
9974;SDS011;5028;50.974;4.968;2023-02-11T14:08:23;37.87;;;27.90;;
9974;SDS011;5028;50.974;4.968;2023-02-11T14:14:31;33.60;;;25.87;;
9974;SDS011;5028;50.974;4.968;2023-02-11T14:20:30;37.37;;;27.27;;
9974;SDS011;5028;50.974;4.968;2023-02-11T14:23:20;34.60;;;26.57;;
9974;SDS011;5028;50.974;4.968;2023-02-11T14:26:03;38.40;;;28.10;;
9974;SDS011;5028;50.974;4.968;2023-02-11T14:28:51;36.97;;;26.93;;
9974;SDS011;5028;50.974;4.968;2023-02-11T14:31:35;38.23;;;28.17;;
9974;SDS011;5028;50.974;4.968;2023-02-11T14:34:15;32.93;;;27.07;;
9974;SDS011;5028;50.974;4.968;2023-02-11T14:37:13;37.53;;;28.47;;
9974;SDS011;5028;50.974;4.968;2023-02-11T14:39:59;41.17;;;29.03;;
9974;SDS011;5028;50.974;4.968;2023-02-11T14:42:41;39.53;;;28.93;;
9974;SDS011;5028;50.974;4.968;2023-02-11T14:45:12;38.73;;;28.37;;
9974;SDS011;5028;50.974;4.968;2023-02-11T14:47:54;39.87;;;27.43;;
9974;SDS011;5028;50.974;4.968;2023-02-11T14:50:31;37.50;;;28.30;;
9974;SDS011;5028;50.974;4.968;2023-02-11T14:53:12;41.43;;;28.53;;
9974;SDS011;5028;50.974;4.968;2023-02-11T14:55:45;35.33;;;28.13;;
9974;SDS011;5028;50.974;4.968;2023-02-11T14:58:23;38.57;;;28.23;;
9974;SDS011;5028;50.974;4.968;2023-02-11T15:00:54;38.13;;;28.73;;
9974;SDS011;5028;50.974;4.968;2023-02-11T15:03:32;41.87;;;28.57;;
9974;SDS011;5028;50.974;4.968;2023-02-11T15:06:02;42.07;;;27.63;;
9974;SDS011;5028;50.974;4.968;2023-02-11T15:08:41;38.77;;;27.90;;
9974;SDS011;5028;50.974;4.968;2023-02-11T15:11:14;36.10;;;28.43;;
9974;SDS011;5028;50.974;4.968;2023-02-11T15:13:58;40.00;;;28.53;;
9974;SDS011;5028;50.974;4.968;2023-02-11T15:16:39;38.47;;;28.77;;
9974;SDS011;5028;50.974;4.968;2023-02-11T15:19:18;39.33;;;28.63;;
9974;SDS011;5028;50.974;4.968;2023-02-11T15:22:00;38.87;;;28.03;;
9974;SDS011;5028;50.974;4.968;2023-02-11T15:24:31;36.40;;;27.93;;
9974;SDS011;5028;50.974;4.968;2023-02-11T15:27:11;38.67;;;28.70;;
9974;SDS011;5028;50.974;4.968;2023-02-11T15:29:42;39.17;;;29.87;;
9974;SDS011;5028;50.974;4.968;2023-02-11T15:32:19;39.70;;;28.57;;
9974;SDS011;5028;50.974;4.968;2023-02-11T15:34:49;38.00;;;29.17;;
9974;SDS011;5028;50.974;4.968;2023-02-11T15:37:26;39.13;;;28.87;;
9974;SDS011;5028;50.974;4.968;2023-02-11T15:40:06;44.60;;;29.37;;
9974;SDS011;5028;50.974;4.968;2023-02-11T15:42:52;38.23;;;28.67;;
9974;SDS011;5028;50.974;4.968;2023-02-11T15:45:25;41.50;;;29.23;;
9974;SDS011;5028;50.974;4.968;2023-02-11T15:48:07;37.37;;;29.23;;
9974;SDS011;5028;50.974;4.968;2023-02-11T15:50:39;38.17;;;28.83;;
9974;SDS011;5028;50.974;4.968;2023-02-11T15:53:19;42.57;;;30.53;;
9974;SDS011;5028;50.974;4.968;2023-02-11T15:55:50;40.17;;;29.53;;
9974;SDS011;5028;50.974;4.968;2023-02-11T15:58:29;39.40;;;29.53;;
9974;SDS011;5028;50.974;4.968;2023-02-11T16:01:04;38.83;;;29.93;;
9974;SDS011;5028;50.974;4.968;2023-02-11T16:03:39;41.27;;;29.37;;
9974;SDS011;5028;50.974;4.968;2023-02-11T16:06:15;39.33;;;29.73;;
9974;SDS011;5028;50.974;4.968;2023-02-11T16:08:55;38.83;;;29.53;;
9974;SDS011;5028;50.974;4.968;2023-02-11T16:11:28;40.03;;;29.13;;
9974;SDS011;5028;50.974;4.968;2023-02-11T16:14:21;40.27;;;29.57;;
9974;SDS011;5028;50.974;4.968;2023-02-11T16:16:51;37.83;;;29.77;;
9974;SDS011;5028;50.974;4.968;2023-02-11T16:19:29;36.17;;;30.10;;
9974;SDS011;5028;50.974;4.968;2023-02-11T16:22:00;40.23;;;29.40;;
9974;SDS011;5028;50.974;4.968;2023-02-11T16:24:40;42.90;;;30.10;;
9974;SDS011;5028;50.974;4.968;2023-02-11T16:27:17;43.50;;;31.70;;